sensor_id;sensor_type;location;lat;lon;timestamp;pressure;altitude;pressure_sealevel;temperature;humidity
74079;BME280;62437;51.544;-3.276;2023-04-01T00:01:11;99510.60;;;8.70;67.82
74079;BME280;62437;51.544;-3.276;2023-04-01T00:03:33;99511.86;;;9.42;65.43
74079;BME280;62437;51.544;-3.276;2023-04-01T00:05:59;99517.27;;;9.30;66.28
74079;BME280;62437;51.544;-3.276;2023-04-01T00:08:25;99514.64;;;9.92;64.93
74079;BME280;62437;51.544;-3.276;2023-04-01T00:10:50;99523.64;;;10.62;62.70
74079;BME280;62437;51.544;-3.276;2023-04-01T00:13:16;99527.65;;;9.09;66.78
74079;BME280;62437;51.544;-3.276;2023-04-01T00:15:42;99529.29;;;9.62;64.78
74079;BME280;62437;51.544;-3.276;2023-04-01T00:18:07;99536.19;;;10.18;63.16
74079;BME280;62437;51.544;-3.276;2023-04-01T00:20:33;99532.83;;;10.29;64.06
74079;BME280;62437;51.544;-3.276;2023-04-01T00:22:58;99537.73;;;9.39;65.42
74079;BME280;62437;51.544;-3.276;2023-04-01T00:25:24;99539.42;;;10.74;62.53
74079;BME280;62437;51.544;-3.276;2023-04-01T00:27:50;99536.26;;;10.33;63.37
74079;BME280;62437;51.544;-3.276;2023-04-01T00:30:16;99537.67;;;8.59;67.69
74079;BME280;62437;51.544;-3.276;2023-04-01T00:32:43;99536.63;;;9.95;64.69
74079;BME280;62437;51.544;-3.276;2023-04-01T00:35:08;99544.14;;;8.65;69.22
74079;BME280;62437;51.544;-3.276;2023-04-01T00:37:34;99541.28;;;8.89;69.12
74079;BME280;62437;51.544;-3.276;2023-04-01T00:39:58;99543.81;;;8.48;69.05
74079;BME280;62437;51.544;-3.276;2023-04-01T00:42:24;99539.37;;;7.74;71.63
74079;BME280;62437;51.544;-3.276;2023-04-01T00:44:51;99546.88;;;7.57;72.39
74079;BME280;62437;51.544;-3.276;2023-04-01T00:47:15;99541.43;;;7.82;71.97
74079;BME280;62437;51.544;-3.276;2023-04-01T00:49:43;99544.61;;;9.34;66.95
74079;BME280;62437;51.544;-3.276;2023-04-01T00:52:08;99546.96;;;8.99;67.74
74079;BME280;62437;51.544;-3.276;2023-04-01T00:54:32;99545.72;;;9.76;65.14
74079;BME280;62437;51.544;-3.276;2023-04-01T00:57:00;99546.36;;;9.67;65.51
74079;BME280;62437;51.544;-3.276;2023-04-01T00:59:26;99550.11;;;8.48;68.83
74079;BME280;62437;51.544;-3.276;2023-04-01T01:01:49;99550.94;;;9.31;66.37
74079;BME280;62437;51.544;-3.276;2023-04-01T01:04:22;99551.40;;;9.99;64.91
74079;BME280;62437;51.544;-3.276;2023-04-01T01:06:51;99554.60;;;9.89;64.85
74079;BME280;62437;51.544;-3.276;2023-04-01T01:09:18;99562.67;;;8.15;70.51
74079;BME280;62437;51.544;-3.276;2023-04-01T01:11:36;99563.54;;;8.87;67.95
74079;BME280;62437;51.544;-3.276;2023-04-01T01:14:04;99564.03;;;9.54;65.84
74079;BME280;62437;51.544;-3.276;2023-04-01T01:16:28;99566.18;;;9.32;66.54
74079;BME280;62437;51.544;-3.276;2023-04-01T01:18:53;99571.00;;;7.55;72.34
74079;BME280;62437;51.544;-3.276;2023-04-01T01:28:41;99567.25;;;9.43;65.34
74079;BME280;62437;51.544;-3.276;2023-04-01T01:31:02;99574.23;;;8.43;67.54
74079;BME280;62437;51.544;-3.276;2023-04-01T01:33:41;99570.52;;;10.55;61.80
74079;BME280;62437;51.544;-3.276;2023-04-01T01:35:50;99571.39;;;10.30;63.12
74079;BME280;62437;51.544;-3.276;2023-04-01T01:38:16;99574.14;;;10.81;61.98
74079;BME280;62437;51.544;-3.276;2023-04-01T01:40:42;99578.83;;;7.46;70.13
74079;BME280;62437;51.544;-3.276;2023-04-01T01:43:09;99584.70;;;7.27;72.24
74079;BME280;62437;51.544;-3.276;2023-04-01T01:45:33;99588.55;;;7.98;70.16
74079;BME280;62437;51.544;-3.276;2023-04-01T01:47:57;99585.34;;;9.11;66.99
74079;BME280;62437;51.544;-3.276;2023-04-01T01:50:24;99591.82;;;7.97;69.02
74079;BME280;62437;51.544;-3.276;2023-04-01T01:52:48;99594.73;;;9.02;67.01
74079;BME280;62437;51.544;-3.276;2023-04-01T01:55:27;99595.78;;;9.12;66.78
74079;BME280;62437;51.544;-3.276;2023-04-01T01:57:40;99599.14;;;7.09;71.44
74079;BME280;62437;51.544;-3.276;2023-04-01T02:00:09;99596.85;;;9.77;65.24
74079;BME280;62437;51.544;-3.276;2023-04-01T02:02:31;99604.14;;;9.93;65.20
74079;BME280;62437;51.544;-3.276;2023-04-01T02:04:56;99606.78;;;8.47;67.84
74079;BME280;62437;51.544;-3.276;2023-04-01T02:07:27;99610.88;;;8.27;69.76
74079;BME280;62437;51.544;-3.276;2023-04-01T02:09:48;99617.11;;;6.21;76.95
74079;BME280;62437;51.544;-3.276;2023-04-01T02:12:14;99613.08;;;6.90;74.45
74079;BME280;62437;51.544;-3.276;2023-04-01T02:14:43;99615.76;;;7.67;71.95
74079;BME280;62437;51.544;-3.276;2023-04-01T02:17:09;99617.36;;;8.91;68.33
74079;BME280;62437;51.544;-3.276;2023-04-01T02:19:33;99619.69;;;8.78;68.65
74079;BME280;62437;51.544;-3.276;2023-04-01T02:21:58;99615.72;;;8.64;68.03
74079;BME280;62437;51.544;-3.276;2023-04-01T02:24:26;99616.26;;;8.24;68.49
74079;BME280;62437;51.544;-3.276;2023-04-01T02:26:49;99617.65;;;8.40;68.74
74079;BME280;62437;51.544;-3.276;2023-04-01T02:29:13;99619.00;;;7.56;71.63
74079;BME280;62437;51.544;-3.276;2023-04-01T02:31:39;99617.69;;;7.48;71.18
74079;BME280;62437;51.544;-3.276;2023-04-01T02:34:04;99620.51;;;9.18;66.58
74079;BME280;62437;51.544;-3.276;2023-04-01T02:36:31;99618.82;;;8.49;69.78
74079;BME280;62437;51.544;-3.276;2023-04-01T02:38:56;99623.40;;;8.88;67.43
74079;BME280;62437;51.544;-3.276;2023-04-01T02:41:21;99625.97;;;7.44;71.20
74079;BME280;62437;51.544;-3.276;2023-04-01T02:43:47;99623.78;;;9.01;66.52
74079;BME280;62437;51.544;-3.276;2023-04-01T02:46:13;99626.21;;;9.25;66.40
74079;BME280;62437;51.544;-3.276;2023-04-01T02:48:38;99625.40;;;9.01;65.75
74079;BME280;62437;51.544;-3.276;2023-04-01T02:51:04;99625.13;;;8.62;67.34
74079;BME280;62437;51.544;-3.276;2023-04-01T02:53:30;99627.20;;;8.55;66.55
74079;BME280;62437;51.544;-3.276;2023-04-01T02:55:56;99626.92;;;8.13;68.73
74079;BME280;62437;51.544;-3.276;2023-04-01T02:58:21;99629.27;;;8.58;66.79
74079;BME280;62437;51.544;-3.276;2023-04-01T03:00:47;99622.74;;;9.42;64.69
74079;BME280;62437;51.544;-3.276;2023-04-01T03:03:13;99627.65;;;8.53;67.69
74079;BME280;62437;51.544;-3.276;2023-04-01T03:05:39;99630.56;;;8.09;68.04
74079;BME280;62437;51.544;-3.276;2023-04-01T03:08:04;99630.53;;;8.40;67.50
74079;BME280;62437;51.544;-3.276;2023-04-01T03:10:29;99632.13;;;8.31;69.15
74079;BME280;62437;51.544;-3.276;2023-04-01T03:12:55;99628.47;;;9.41;65.42
74079;BME280;62437;51.544;-3.276;2023-04-01T03:15:21;99632.06;;;7.95;68.54
74079;BME280;62437;51.544;-3.276;2023-04-01T03:17:47;99629.79;;;9.32;65.38
74079;BME280;62437;51.544;-3.276;2023-04-01T03:20:13;99634.78;;;8.42;68.00
74079;BME280;62437;51.544;-3.276;2023-04-01T03:22:38;99627.97;;;7.56;70.00
74079;BME280;62437;51.544;-3.276;2023-04-01T03:25:05;99635.61;;;8.33;68.36
74079;BME280;62437;51.544;-3.276;2023-04-01T03:27:29;99633.11;;;10.25;63.49
74079;BME280;62437;51.544;-3.276;2023-04-01T03:29:55;99635.69;;;10.36;62.63
74079;BME280;62437;51.544;-3.276;2023-04-01T03:32:21;99641.90;;;7.38;70.66
74079;BME280;62437;51.544;-3.276;2023-04-01T03:34:46;99642.78;;;9.29;65.40
74079;BME280;62437;51.544;-3.276;2023-04-01T03:37:14;99639.25;;;8.80;67.56
74079;BME280;62437;51.544;-3.276;2023-04-01T03:39:38;99646.62;;;8.16;68.99
74079;BME280;62437;51.544;-3.276;2023-04-01T03:42:04;99648.09;;;9.48;65.22
74079;BME280;62437;51.544;-3.276;2023-04-01T03:44:31;99649.91;;;8.57;68.16
74079;BME280;62437;51.544;-3.276;2023-04-01T03:46:55;99650.28;;;6.46;73.75
74079;BME280;62437;51.544;-3.276;2023-04-01T03:49:22;99654.42;;;8.80;67.08
74079;BME280;62437;51.544;-3.276;2023-04-01T03:51:46;99654.72;;;9.65;64.15
74079;BME280;62437;51.544;-3.276;2023-04-01T03:54:12;99652.36;;;9.41;64.36
74079;BME280;62437;51.544;-3.276;2023-04-01T03:56:39;99650.76;;;9.85;62.93
74079;BME280;62437;51.544;-3.276;2023-04-01T03:59:05;99657.55;;;8.48;67.05
74079;BME280;62437;51.544;-3.276;2023-04-01T04:01:29;99663.41;;;7.99;67.24
74079;BME280;62437;51.544;-3.276;2023-04-01T04:03:55;99664.63;;;6.73;71.55
74079;BME280;62437;51.544;-3.276;2023-04-01T04:06:20;99668.53;;;5.47;76.61
74079;BME280;62437;51.544;-3.276;2023-04-01T04:08:46;99669.78;;;6.55;75.26
74079;BME280;62437;51.544;-3.276;2023-04-01T04:11:12;99670.18;;;6.82;73.86
74079;BME280;62437;51.544;-3.276;2023-04-01T04:13:37;99671.57;;;8.62;67.91
74079;BME280;62437;51.544;-3.276;2023-04-01T04:16:03;99678.36;;;8.91;66.27
74079;BME280;62437;51.544;-3.276;2023-04-01T04:18:29;99674.70;;;8.77;67.11
74079;BME280;62437;51.544;-3.276;2023-04-01T04:20:54;99678.91;;;9.35;64.92
74079;BME280;62437;51.544;-3.276;2023-04-01T04:23:20;99682.73;;;8.29;69.55
74079;BME280;62437;51.544;-3.276;2023-04-01T04:25:55;99680.86;;;8.06;70.21
74079;BME280;62437;51.544;-3.276;2023-04-01T04:28:11;99681.03;;;7.72;70.02
74079;BME280;62437;51.544;-3.276;2023-04-01T04:30:37;99679.94;;;8.33;68.62
74079;BME280;62437;51.544;-3.276;2023-04-01T04:33:05;99681.22;;;8.51;68.30
74079;BME280;62437;51.544;-3.276;2023-04-01T04:35:28;99682.65;;;8.08;70.17
74079;BME280;62437;51.544;-3.276;2023-04-01T04:37:54;99681.02;;;8.26;68.22
74079;BME280;62437;51.544;-3.276;2023-04-01T04:40:22;99684.68;;;7.27;71.05
74079;BME280;62437;51.544;-3.276;2023-04-01T04:42:46;99689.93;;;9.22;65.77
74079;BME280;62437;51.544;-3.276;2023-04-01T04:45:13;99684.93;;;7.95;68.75
74079;BME280;62437;51.544;-3.276;2023-04-01T04:47:37;99690.20;;;8.20;67.00
74079;BME280;62437;51.544;-3.276;2023-04-01T04:50:03;99693.50;;;8.53;67.56
74079;BME280;62437;51.544;-3.276;2023-04-01T04:52:28;99695.47;;;8.87;65.60
74079;BME280;62437;51.544;-3.276;2023-04-01T04:54:54;99697.92;;;6.39;73.34
74079;BME280;62437;51.544;-3.276;2023-04-01T04:57:19;99694.07;;;7.58;70.86
74079;BME280;62437;51.544;-3.276;2023-04-01T04:59:45;99696.48;;;8.04;67.73
74079;BME280;62437;51.544;-3.276;2023-04-01T05:02:11;99694.62;;;9.80;62.46
74079;BME280;62437;51.544;-3.276;2023-04-01T05:04:37;99697.06;;;10.66;61.13
74079;BME280;62437;51.544;-3.276;2023-04-01T05:07:02;99701.02;;;9.28;64.88
74079;BME280;62437;51.544;-3.276;2023-04-01T05:09:28;99703.39;;;9.98;62.42
74079;BME280;62437;51.544;-3.276;2023-04-01T05:11:55;99707.64;;;8.94;66.52
74079;BME280;62437;51.544;-3.276;2023-04-01T05:14:19;99708.48;;;9.95;62.81
74079;BME280;62437;51.544;-3.276;2023-04-01T05:16:45;99715.33;;;8.99;65.79
74079;BME280;62437;51.544;-3.276;2023-04-01T05:19:12;99718.33;;;8.55;66.56
74079;BME280;62437;51.544;-3.276;2023-04-01T05:21:36;99718.52;;;7.98;68.69
74079;BME280;62437;51.544;-3.276;2023-04-01T05:24:02;99725.31;;;8.58;66.37
74079;BME280;62437;51.544;-3.276;2023-04-01T05:26:28;99727.44;;;6.27;74.67
74079;BME280;62437;51.544;-3.276;2023-04-01T05:28:53;99729.17;;;9.08;65.79
74079;BME280;62437;51.544;-3.276;2023-04-01T05:31:19;99731.65;;;9.83;64.30
74079;BME280;62437;51.544;-3.276;2023-04-01T05:33:45;99727.49;;;8.01;70.19
74079;BME280;62437;51.544;-3.276;2023-04-01T05:36:12;99728.43;;;8.57;67.06
74079;BME280;62437;51.544;-3.276;2023-04-01T05:38:36;99731.06;;;9.40;64.82
74079;BME280;62437;51.544;-3.276;2023-04-01T05:41:03;99734.35;;;9.16;65.86
74079;BME280;62437;51.544;-3.276;2023-04-01T05:43:27;99736.35;;;9.66;63.38
74079;BME280;62437;51.544;-3.276;2023-04-01T05:45:53;99737.68;;;7.96;68.97
74079;BME280;62437;51.544;-3.276;2023-04-01T05:48:19;99739.13;;;8.19;68.85
74079;BME280;62437;51.544;-3.276;2023-04-01T05:50:44;99741.98;;;8.57;66.73
74079;BME280;62437;51.544;-3.276;2023-04-01T05:53:10;99750.06;;;6.86;72.49
74079;BME280;62437;51.544;-3.276;2023-04-01T05:55:36;99741.80;;;7.94;69.04
74079;BME280;62437;51.544;-3.276;2023-04-01T05:58:02;99750.16;;;6.66;72.53
74079;BME280;62437;51.544;-3.276;2023-04-01T06:00:27;99752.46;;;9.06;65.62
74079;BME280;62437;51.544;-3.276;2023-04-01T06:02:53;99754.82;;;7.87;69.77
74079;BME280;62437;51.544;-3.276;2023-04-01T06:05:20;99754.95;;;9.10;65.19
74079;BME280;62437;51.544;-3.276;2023-04-01T06:07:44;99755.31;;;8.93;66.62
74079;BME280;62437;51.544;-3.276;2023-04-01T06:10:15;99752.47;;;8.09;68.82
74079;BME280;62437;51.544;-3.276;2023-04-01T06:12:45;99758.26;;;8.75;65.49
74079;BME280;62437;51.544;-3.276;2023-04-01T06:15:16;99760.39;;;8.89;66.34
74079;BME280;62437;51.544;-3.276;2023-04-01T06:17:35;99759.62;;;8.99;65.99
74079;BME280;62437;51.544;-3.276;2023-04-01T06:19:59;99761.56;;;8.88;66.43
74079;BME280;62437;51.544;-3.276;2023-04-01T06:24:57;99767.87;;;7.13;70.54
74079;BME280;62437;51.544;-3.276;2023-04-01T06:27:19;99773.21;;;7.65;71.23
74079;BME280;62437;51.544;-3.276;2023-04-01T06:29:51;99775.77;;;7.01;71.59
74079;BME280;62437;51.544;-3.276;2023-04-01T06:32:18;99779.68;;;9.72;63.35
74079;BME280;62437;51.544;-3.276;2023-04-01T06:34:42;99781.04;;;7.40;70.78
74079;BME280;62437;51.544;-3.276;2023-04-01T06:37:07;99782.05;;;7.55;69.70
74079;BME280;62437;51.544;-3.276;2023-04-01T06:39:29;99788.69;;;7.65;70.53
74079;BME280;62437;51.544;-3.276;2023-04-01T06:41:59;99791.94;;;7.60;68.86
74079;BME280;62437;51.544;-3.276;2023-04-01T06:44:16;99796.34;;;7.80;70.11
74079;BME280;62437;51.544;-3.276;2023-04-01T06:46:41;99805.59;;;7.22;71.04
74079;BME280;62437;51.544;-3.276;2023-04-01T06:51:33;99802.63;;;9.36;64.84
74079;BME280;62437;51.544;-3.276;2023-04-01T06:53:59;99807.44;;;8.64;68.28
74079;BME280;62437;51.544;-3.276;2023-04-01T06:56:19;99809.04;;;7.52;70.40
74079;BME280;62437;51.544;-3.276;2023-04-01T06:58:48;99813.07;;;7.91;69.64
74079;BME280;62437;51.544;-3.276;2023-04-01T07:01:14;99816.23;;;10.23;62.55
74079;BME280;62437;51.544;-3.276;2023-04-01T07:03:38;99816.09;;;10.98;60.71
74079;BME280;62437;51.544;-3.276;2023-04-01T07:06:03;99823.36;;;7.87;69.23
74079;BME280;62437;51.544;-3.276;2023-04-01T07:08:30;99833.34;;;7.36;70.78
74079;BME280;62437;51.544;-3.276;2023-04-01T07:10:55;99834.90;;;8.36;69.06
74079;BME280;62437;51.544;-3.276;2023-04-01T07:13:22;99835.01;;;8.55;67.17
74079;BME280;62437;51.544;-3.276;2023-04-01T07:15:54;99833.49;;;11.38;58.11
74079;BME280;62437;51.544;-3.276;2023-04-01T07:18:14;99848.43;;;6.63;72.71
74079;BME280;62437;51.544;-3.276;2023-04-01T07:20:36;99847.01;;;6.99;74.26
74079;BME280;62437;51.544;-3.276;2023-04-01T07:23:04;99856.31;;;5.64;78.25
74079;BME280;62437;51.544;-3.276;2023-04-01T07:25:31;99847.29;;;8.72;69.16
74079;BME280;62437;51.544;-3.276;2023-04-01T07:27:53;99847.99;;;8.23;70.55
74079;BME280;62437;51.544;-3.276;2023-04-01T07:30:19;99847.52;;;8.10;69.83
74079;BME280;62437;51.544;-3.276;2023-04-01T07:32:48;99849.50;;;9.76;64.68
74079;BME280;62437;51.544;-3.276;2023-04-01T07:35:22;99853.26;;;9.37;64.88
74079;BME280;62437;51.544;-3.276;2023-04-01T07:37:40;99858.80;;;10.36;62.57
74079;BME280;62437;51.544;-3.276;2023-04-01T07:40:11;99857.19;;;8.61;67.47
74079;BME280;62437;51.544;-3.276;2023-04-01T07:42:33;99862.09;;;10.20;62.97
74079;BME280;62437;51.544;-3.276;2023-04-01T07:44:59;99863.75;;;11.14;59.84
74079;BME280;62437;51.544;-3.276;2023-04-01T07:47:31;99868.19;;;10.41;61.78
74079;BME280;62437;51.544;-3.276;2023-04-01T07:49:52;99871.18;;;10.07;62.76
74079;BME280;62437;51.544;-3.276;2023-04-01T07:52:14;99872.71;;;10.17;62.70
74079;BME280;62437;51.544;-3.276;2023-04-01T07:54:40;99870.72;;;10.86;60.97
74079;BME280;62437;51.544;-3.276;2023-04-01T07:57:03;99873.20;;;8.91;65.75
74079;BME280;62437;51.544;-3.276;2023-04-01T07:59:31;99877.86;;;9.66;64.05
74079;BME280;62437;51.544;-3.276;2023-04-01T08:01:58;99882.32;;;8.65;67.36
74079;BME280;62437;51.544;-3.276;2023-04-01T08:04:26;99884.56;;;10.65;61.70
74079;BME280;62437;51.544;-3.276;2023-04-01T08:06:45;99885.02;;;9.02;66.96
74079;BME280;62437;51.544;-3.276;2023-04-01T08:09:15;99885.96;;;8.26;69.05
74079;BME280;62437;51.544;-3.276;2023-04-01T08:11:46;99889.26;;;7.82;70.01
74079;BME280;62437;51.544;-3.276;2023-04-01T08:14:07;99887.41;;;8.00;70.86
74079;BME280;62437;51.544;-3.276;2023-04-01T08:16:31;99886.22;;;9.79;64.90
74079;BME280;62437;51.544;-3.276;2023-04-01T08:18:59;99891.72;;;7.82;69.67
74079;BME280;62437;51.544;-3.276;2023-04-01T08:21:23;99894.00;;;7.90;68.41
74079;BME280;62437;51.544;-3.276;2023-04-01T08:23:45;99904.07;;;6.84;71.63
74079;BME280;62437;51.544;-3.276;2023-04-01T08:26:13;99903.62;;;7.32;71.31
74079;BME280;62437;51.544;-3.276;2023-04-01T08:28:37;99908.88;;;7.49;72.19
74079;BME280;62437;51.544;-3.276;2023-04-01T08:31:04;99907.92;;;9.24;67.16
74079;BME280;62437;51.544;-3.276;2023-04-01T08:33:26;99910.67;;;10.82;61.77
74079;BME280;62437;51.544;-3.276;2023-04-01T08:35:55;99913.68;;;9.56;64.89
74079;BME280;62437;51.544;-3.276;2023-04-01T08:38:22;99916.88;;;9.71;65.10
74079;BME280;62437;51.544;-3.276;2023-04-01T08:40:59;99917.47;;;9.28;66.76
74079;BME280;62437;51.544;-3.276;2023-04-01T08:43:12;99926.62;;;7.65;70.85
74079;BME280;62437;51.544;-3.276;2023-04-01T08:45:44;99929.93;;;9.71;66.36
74079;BME280;62437;51.544;-3.276;2023-04-01T08:48:08;99929.84;;;8.93;67.30
74079;BME280;62437;51.544;-3.276;2023-04-01T08:50:37;99940.60;;;7.84;70.32
74079;BME280;62437;51.544;-3.276;2023-04-01T08:52:58;99943.35;;;7.77;71.39
74079;BME280;62437;51.544;-3.276;2023-04-01T08:55:30;99943.35;;;10.38;63.47
74079;BME280;62437;51.544;-3.276;2023-04-01T08:57:49;99945.23;;;9.66;66.09
74079;BME280;62437;51.544;-3.276;2023-04-01T09:00:20;99949.80;;;9.83;65.00
74079;BME280;62437;51.544;-3.276;2023-04-01T09:02:48;99955.91;;;7.43;72.81
74079;BME280;62437;51.544;-3.276;2023-04-01T09:07:33;99960.18;;;7.30;72.97
74079;BME280;62437;51.544;-3.276;2023-04-01T09:12:35;99965.48;;;6.58;76.58
74079;BME280;62437;51.544;-3.276;2023-04-01T09:15:01;99966.21;;;7.20;75.74
74079;BME280;62437;51.544;-3.276;2023-04-01T09:17:21;99966.92;;;7.36;73.44
74079;BME280;62437;51.544;-3.276;2023-04-01T09:19:44;99966.04;;;10.12;66.31
74079;BME280;62437;51.544;-3.276;2023-04-01T09:22:10;99971.15;;;8.38;70.38
74079;BME280;62437;51.544;-3.276;2023-04-01T09:24:35;99973.75;;;8.22;72.04
74079;BME280;62437;51.544;-3.276;2023-04-01T09:27:03;99972.58;;;8.70;68.80
74079;BME280;62437;51.544;-3.276;2023-04-01T09:29:26;99978.12;;;8.04;73.59
74079;BME280;62437;51.544;-3.276;2023-04-01T09:31:51;99978.42;;;7.91;72.18
74079;BME280;62437;51.544;-3.276;2023-04-01T09:41:29;99986.30;;;8.47;71.33
74079;BME280;62437;51.544;-3.276;2023-04-01T09:43:58;99988.66;;;7.84;73.71
74079;BME280;62437;51.544;-3.276;2023-04-01T09:46:23;99991.25;;;10.92;63.81
74079;BME280;62437;51.544;-3.276;2023-04-01T09:51:15;99993.59;;;8.85;70.00
74079;BME280;62437;51.544;-3.276;2023-04-01T10:01:04;100007.04;;;8.31;73.38
74079;BME280;62437;51.544;-3.276;2023-04-01T10:08:21;100017.40;;;7.59;71.84
74079;BME280;62437;51.544;-3.276;2023-04-01T10:10:48;100019.09;;;7.33;73.07
74079;BME280;62437;51.544;-3.276;2023-04-01T10:15:35;100030.25;;;7.26;74.24
74079;BME280;62437;51.544;-3.276;2023-04-01T10:20:33;100032.93;;;7.33;74.50
74079;BME280;62437;51.544;-3.276;2023-04-01T10:25:16;100043.87;;;6.90;75.36
74079;BME280;62437;51.544;-3.276;2023-04-01T10:49:39;100067.55;;;7.58;76.32
74079;BME280;62437;51.544;-3.276;2023-04-01T10:54:22;100077.40;;;7.95;72.35
74079;BME280;62437;51.544;-3.276;2023-04-01T10:56:42;100087.62;;;7.80;75.22
74079;BME280;62437;51.544;-3.276;2023-04-01T11:01:48;100100.88;;;7.41;74.57
74079;BME280;62437;51.544;-3.276;2023-04-01T11:11:29;100112.79;;;8.55;70.97
74079;BME280;62437;51.544;-3.276;2023-04-01T11:26:02;100131.62;;;9.93;67.10
74079;BME280;62437;51.544;-3.276;2023-04-01T11:28:28;100134.63;;;10.40;67.33
74079;BME280;62437;51.544;-3.276;2023-04-01T11:30:57;100136.76;;;10.76;66.77
74079;BME280;62437;51.544;-3.276;2023-04-01T11:33:05;100142.34;;;9.76;68.78
74079;BME280;62437;51.544;-3.276;2023-04-01T11:35:45;100146.24;;;10.10;67.45
74079;BME280;62437;51.544;-3.276;2023-04-01T11:38:00;100152.25;;;9.19;65.03
74079;BME280;62437;51.544;-3.276;2023-04-01T11:40:26;100158.26;;;9.02;70.36
74079;BME280;62437;51.544;-3.276;2023-04-01T11:42:52;100162.73;;;8.85;68.61
74079;BME280;62437;51.544;-3.276;2023-04-01T11:45:20;100167.08;;;9.01;71.30
74079;BME280;62437;51.544;-3.276;2023-04-01T11:47:56;100169.22;;;10.72;67.18
74079;BME280;62437;51.544;-3.276;2023-04-01T11:50:12;100180.95;;;8.48;70.21
74079;BME280;62437;51.544;-3.276;2023-04-01T11:55:10;100194.05;;;8.71;68.36
74079;BME280;62437;51.544;-3.276;2023-04-01T11:59:57;100203.12;;;8.22;69.25
74079;BME280;62437;51.544;-3.276;2023-04-01T12:02:18;100204.51;;;9.51;68.50
74079;BME280;62437;51.544;-3.276;2023-04-01T12:04:54;100207.86;;;9.55;67.97
74079;BME280;62437;51.544;-3.276;2023-04-01T12:07:11;100210.87;;;9.80;67.83
74079;BME280;62437;51.544;-3.276;2023-04-01T12:09:35;100211.90;;;10.60;67.74
74079;BME280;62437;51.544;-3.276;2023-04-01T12:12:02;100218.40;;;9.73;67.39
74079;BME280;62437;51.544;-3.276;2023-04-01T12:14:27;100223.94;;;10.22;68.21
74079;BME280;62437;51.544;-3.276;2023-04-01T12:16:56;100224.05;;;9.73;69.33
74079;BME280;62437;51.544;-3.276;2023-04-01T12:19:18;100227.97;;;9.92;65.57
74079;BME280;62437;51.544;-3.276;2023-04-01T12:21:37;100234.05;;;9.87;67.13
74079;BME280;62437;51.544;-3.276;2023-04-01T12:31:31;100241.37;;;11.05;68.06
74079;BME280;62437;51.544;-3.276;2023-04-01T12:33:59;100247.33;;;10.34;67.12
74079;BME280;62437;51.544;-3.276;2023-04-01T12:38:42;100259.99;;;9.68;66.00
74079;BME280;62437;51.544;-3.276;2023-04-01T12:41:09;100268.97;;;10.39;66.00
74079;BME280;62437;51.544;-3.276;2023-04-01T12:46:00;100281.88;;;8.74;67.38
74079;BME280;62437;51.544;-3.276;2023-04-01T12:48:31;100286.81;;;8.47;68.44
74079;BME280;62437;51.544;-3.276;2023-04-01T12:55:38;100291.67;;;8.77;66.19
74079;BME280;62437;51.544;-3.276;2023-04-01T13:00:37;100297.25;;;9.91;64.66
74079;BME280;62437;51.544;-3.276;2023-04-01T13:03:05;100303.69;;;8.67;65.61
74079;BME280;62437;51.544;-3.276;2023-04-01T13:07:58;100309.21;;;9.62;71.46
74079;BME280;62437;51.544;-3.276;2023-04-01T13:10:15;100314.27;;;9.13;66.20
74079;BME280;62437;51.544;-3.276;2023-04-01T13:15:09;100315.94;;;8.67;68.81
74079;BME280;62437;51.544;-3.276;2023-04-01T13:17:31;100313.19;;;9.20;66.73
74079;BME280;62437;51.544;-3.276;2023-04-01T13:19:56;100313.01;;;9.38;64.05
74079;BME280;62437;51.544;-3.276;2023-04-01T13:22:23;100327.26;;;8.85;63.42
74079;BME280;62437;51.544;-3.276;2023-04-01T13:24:46;100335.96;;;9.10;61.25
74079;BME280;62437;51.544;-3.276;2023-04-01T13:27:14;100334.82;;;9.40;66.08
74079;BME280;62437;51.544;-3.276;2023-04-01T13:29:38;100341.61;;;9.49;62.98
74079;BME280;62437;51.544;-3.276;2023-04-01T13:32:09;100340.09;;;9.36;62.94
74079;BME280;62437;51.544;-3.276;2023-04-01T13:34:37;100341.04;;;9.05;66.28
74079;BME280;62437;51.544;-3.276;2023-04-01T13:37:02;100343.48;;;9.47;60.54
74079;BME280;62437;51.544;-3.276;2023-04-01T13:39:26;100339.89;;;10.01;61.23
74079;BME280;62437;51.544;-3.276;2023-04-01T13:41:55;100348.65;;;9.32;62.70
74079;BME280;62437;51.544;-3.276;2023-04-01T13:44:13;100351.03;;;9.32;62.59
74079;BME280;62437;51.544;-3.276;2023-04-01T13:46:43;100352.36;;;10.12;58.86
74079;BME280;62437;51.544;-3.276;2023-04-01T13:49:15;100350.61;;;10.17;62.62
74079;BME280;62437;51.544;-3.276;2023-04-01T13:56:24;100368.16;;;9.28;59.56
74079;BME280;62437;51.544;-3.276;2023-04-01T13:58:55;100364.77;;;9.75;60.20
74079;BME280;62437;51.544;-3.276;2023-04-01T14:01:14;100368.01;;;10.41;61.66
74079;BME280;62437;51.544;-3.276;2023-04-01T14:03:39;100378.09;;;9.80;59.53
74079;BME280;62437;51.544;-3.276;2023-04-01T14:06:16;100374.68;;;9.93;57.80
74079;BME280;62437;51.544;-3.276;2023-04-01T14:08:36;100381.75;;;9.64;58.27
74079;BME280;62437;51.544;-3.276;2023-04-01T14:10:57;100384.76;;;9.48;57.85
74079;BME280;62437;51.544;-3.276;2023-04-01T14:13:22;100389.90;;;10.26;59.10
74079;BME280;62437;51.544;-3.276;2023-04-01T14:15:56;100398.19;;;9.02;58.57
74079;BME280;62437;51.544;-3.276;2023-04-01T14:18:19;100400.41;;;9.63;60.99
74079;BME280;62437;51.544;-3.276;2023-04-01T14:20:37;100396.96;;;9.76;57.90
74079;BME280;62437;51.544;-3.276;2023-04-01T14:23:07;100402.00;;;9.51;56.61
74079;BME280;62437;51.544;-3.276;2023-04-01T14:27:55;100408.40;;;10.70;59.69
74079;BME280;62437;51.544;-3.276;2023-04-01T14:30:29;100409.77;;;10.84;61.56
74079;BME280;62437;51.544;-3.276;2023-04-01T14:32:47;100417.39;;;9.67;60.38
74079;BME280;62437;51.544;-3.276;2023-04-01T14:35:26;100418.33;;;10.08;61.40
74079;BME280;62437;51.544;-3.276;2023-04-01T14:47:28;100427.54;;;10.34;56.86
74079;BME280;62437;51.544;-3.276;2023-04-01T14:49:42;100441.53;;;10.21;53.03
74079;BME280;62437;51.544;-3.276;2023-04-01T14:52:11;100448.29;;;10.03;54.00
74079;BME280;62437;51.544;-3.276;2023-04-01T14:54:32;100453.89;;;9.99;53.10
74079;BME280;62437;51.544;-3.276;2023-04-01T14:57:05;100459.43;;;10.83;57.94
74079;BME280;62437;51.544;-3.276;2023-04-01T14:59:27;100467.72;;;9.75;56.13
74079;BME280;62437;51.544;-3.276;2023-04-01T15:01:53;100473.99;;;10.53;56.12
74079;BME280;62437;51.544;-3.276;2023-04-01T15:04:26;100478.82;;;9.80;56.44